Time;durP1;ratioP1;P1;durP2;ratioP2;P2;SDS_P1;SDS_P2;PMS_P1;PMS_P2;Temp;Humidity;BMP_temperature;BMP_pressure;BME280_temperature;BME280_humidity;BME280_pressure;Samples;Min_cycle;Max_cycle;Signal;HPM_P1;HPM_P2
2023/11/16 00:01:55;;;;;;;4.10;1.55;;;;;;;7.39;100.00;99171.47;5047628;28;20025;-74
2023/11/16 00:04:21;;;;;;;3.10;1.10;;;;;;;7.40;100.00;99178.53;5044900;28;20063;-75
2023/11/16 00:06:47;;;;;;;3.67;1.30;;;;;;;7.38;100.00;99173.31;5061644;28;20135;-75
2023/11/16 00:09:12;;;;;;;4.50;1.10;;;;;;;7.46;100.00;99183.22;5062103;28;20027;-75
2023/11/16 00:11:41;;;;;;;7.70;1.25;;;;;;;7.36;100.00;99163.72;5048959;28;20321;-75
2023/11/16 00:14:06;;;;;;;6.32;1.58;;;;;;;7.43;100.00;99172.78;5062617;28;20032;-75
2023/11/16 00:16:31;;;;;;;5.43;1.80;;;;;;;7.43;100.00;99172.78;5062453;28;20032;-75
2023/11/16 00:18:57;;;;;;;6.97;1.67;;;;;;;7.46;100.00;99178.66;5044737;28;20344;-75
2023/11/16 00:21:23;;;;;;;7.90;1.48;;;;;;;7.44;100.00;99166.38;5038486;28;20023;-74
2023/11/16 00:23:48;;;;;;;3.72;1.45;;;;;;;7.35;100.00;99160.19;5044500;28;20326;-75
2023/11/16 00:26:14;;;;;;;10.20;2.47;;;;;;;7.40;100.00;99165.06;5062418;28;20020;-75
2023/11/16 00:28:40;;;;;;;6.40;1.85;;;;;;;7.33;100.00;99162.22;5062326;28;20035;-75
2023/11/16 00:31:05;;;;;;;6.80;1.33;;;;;;;7.28;100.00;99161.91;5061330;28;20031;-74
2023/11/16 00:33:31;;;;;;;6.60;2.30;;;;;;;7.35;100.00;99164.75;5063327;28;20025;-77
2023/11/16 00:35:58;;;;;;;9.90;2.28;;;;;;;7.33;100.00;99156.84;5120581;22;20104;-77
2023/11/16 00:38:27;;;;;;;3.47;1.95;;;;;;;7.38;100.00;99161.72;5048894;28;20041;-76
2023/11/16 00:40:55;;;;;;;9.95;2.20;;;;;;;7.40;100.00;99165.06;5042696;28;20021;-76
2023/11/16 00:43:20;;;;;;;6.90;2.50;;;;;;;7.27;100.00;99156.72;5038073;28;20029;-76
2023/11/16 00:45:46;;;;;;;7.72;2.15;;;;;;;7.24;100.00;99156.03;5033318;28;20019;-77
2023/11/16 00:48:11;;;;;;;5.50;1.75;;;;;;;7.23;100.00;99149.00;5062163;28;20013;-76
2023/11/16 00:50:36;;;;;;;7.57;1.83;;;;;;;7.26;100.00;99155.88;5059369;28;20030;-77
2023/11/16 00:53:02;;;;;;;8.43;2.03;;;;;;;7.31;100.00;99161.59;5063029;28;20025;-77
2023/11/16 00:55:27;;;;;;;8.43;2.40;;;;;;;7.30;100.00;99157.19;5056917;28;20214;-77
2023/11/16 00:57:55;;;;;;;5.50;1.90;;;;;;;7.35;100.00;99167.44;5048714;28;20017;-77
2023/11/16 01:00:20;;;;;;;3.75;1.70;;;;;;;7.53;100.00;99183.38;5045955;28;20025;-77
2023/11/16 01:02:49;;;;;;;5.15;1.60;;;;;;;7.59;100.00;99177.28;5053467;28;20348;-76
2023/11/16 01:05:17;;;;;;;5.72;1.55;;;;;;;7.57;100.00;99168.53;5050805;28;20085;-76
2023/11/16 01:07:43;;;;;;;9.63;1.65;;;;;;;7.69;100.00;99173.34;5052824;28;20024;-76
2023/11/16 01:10:14;;;;;;;5.45;1.75;;;;;;;7.59;100.00;99159.25;5064638;28;20453;-76
2023/11/16 01:12:39;;;;;;;3.20;0.95;;;;;;;7.57;100.00;99153.22;5056183;28;20025;-76
2023/11/16 01:15:10;;;;;;;8.55;1.40;;;;;;;7.60;100.00;99158.25;5060725;28;20021;-76
2023/11/16 01:17:36;;;;;;;5.97;1.30;;;;;;;7.58;100.00;99164.84;5076287;28;20024;-76
2023/11/16 01:20:09;;;;;;;4.43;1.10;;;;;;;7.49;100.00;99145.16;5055450;28;20091;-77
2023/11/16 01:22:40;;;;;;;5.22;1.70;;;;;;;7.56;100.00;99172.25;5060341;28;20049;-77
2023/11/16 01:25:15;;;;;;;5.55;1.73;;;;;;;7.61;100.00;99169.88;5057191;28;20028;-76
2023/11/16 01:27:44;;;;;;;2.45;1.10;;;;;;;7.61;100.00;99170.69;5064337;28;20095;-76
2023/11/16 01:30:12;;;;;;;8.43;1.45;;;;;;;7.59;100.00;99166.50;5057066;28;20017;-76
2023/11/16 01:32:37;;;;;;;5.75;1.33;;;;;;;7.53;100.00;99165.34;5065955;28;20048;-76
2023/11/16 01:35:04;;;;;;;3.63;1.33;;;;;;;7.54;100.00;99158.94;5065859;28;20055;-75
2023/11/16 01:37:30;;;;;;;9.38;1.50;;;;;;;7.55;100.00;99159.81;5048078;28;20040;-76
2023/11/16 01:39:55;;;;;;;7.57;1.45;;;;;;;7.58;100.00;99176.44;5046598;28;20029;-76
2023/11/16 01:42:20;;;;;;;6.15;1.33;;;;;;;7.69;100.00;99177.91;5061898;28;20033;-76
2023/11/16 01:44:46;;;;;;;7.10;1.10;;;;;;;7.67;100.00;99186.16;5064331;28;20032;-76
2023/11/16 01:47:14;;;;;;;4.18;1.30;;;;;;;7.73;100.00;99192.72;5061924;28;20059;-76
2023/11/16 01:49:40;;;;;;;3.58;1.10;;;;;;;7.70;100.00;99182.25;5055867;28;20021;-75
2023/11/16 01:52:06;;;;;;;4.63;1.05;;;;;;;7.63;100.00;99174.06;5058871;28;20031;-76
2023/11/16 01:54:35;;;;;;;7.30;0.98;;;;;;;7.50;100.00;99172.94;5081148;28;20017;-76
2023/11/16 01:57:00;;;;;;;3.13;1.17;;;;;;;7.46;100.00;99189.44;5065403;28;20056;-76
2023/11/16 01:59:28;;;;;;;4.47;0.77;;;;;;;7.40;100.00;99173.97;5052140;28;20116;-77
2023/11/16 02:01:54;;;;;;;6.82;1.10;;;;;;;7.36;100.00;99180.75;5045554;28;20021;-77
2023/11/16 02:04:22;;;;;;;4.20;0.90;;;;;;;7.32;100.00;99181.25;5049678;28;20321;-77
2023/11/16 02:06:48;;;;;;;4.07;1.15;;;;;;;7.37;100.00;99179.72;5059844;28;20025;-76
2023/11/16 02:09:15;;;;;;;5.35;0.88;;;;;;;7.33;100.00;99178.38;5062356;28;20036;-77
2023/11/16 02:11:40;;;;;;;6.80;1.00;;;;;;;7.33;100.00;99166.78;5053295;28;20026;-76
2023/11/16 02:14:06;;;;;;;3.75;1.00;;;;;;;7.41;100.00;99180.19;5046269;28;20108;-76
2023/11/16 02:16:31;;;;;;;4.72;1.00;;;;;;;7.16;100.00;99131.84;5049778;28;20025;-76
2023/11/16 02:18:58;;;;;;;4.80;1.42;;;;;;;7.29;100.00;99150.16;5064932;28;20021;-76
2023/11/16 02:21:26;;;;;;;4.10;0.93;;;;;;;7.39;100.00;99156.16;5063767;28;20047;-76
2023/11/16 02:23:51;;;;;;;4.68;1.05;;;;;;;7.38;100.00;99161.72;5064006;28;20079;-76
2023/11/16 02:26:18;;;;;;;5.20;1.42;;;;;;;7.40;100.00;99162.38;5060125;28;20021;-76
2023/11/16 02:28:43;;;;;;;4.13;1.25;;;;;;;7.35;100.00;99146.75;5047130;28;20021;-76
2023/11/16 02:31:09;;;;;;;7.40;1.23;;;;;;;7.38;100.00;99148.25;5044832;28;20025;-76
2023/11/16 02:33:34;;;;;;;6.10;1.00;;;;;;;7.35;100.00;99148.59;5064866;28;20309;-77
2023/11/16 02:35:59;;;;;;;2.47;0.90;;;;;;;7.31;100.00;99142.75;5064431;28;20284;-76
2023/11/16 02:38:25;;;;;;;3.33;0.90;;;;;;;7.21;100.00;99132.16;5064508;28;20040;-76
2023/11/16 02:40:51;;;;;;;6.90;1.35;;;;;;;7.29;100.00;99144.75;5063354;28;20017;-76
2023/11/16 02:43:20;;;;;;;8.43;1.38;;;;;;;7.23;100.00;99132.84;5063601;28;20031;-76
2023/11/16 02:45:46;;;;;;;5.70;0.93;;;;;;;7.31;100.00;99128.41;5063367;28;20051;-76
2023/11/16 02:48:13;;;;;;;6.32;1.20;;;;;;;7.31;100.00;99141.88;5048976;28;20021;-77
2023/11/16 02:50:38;;;;;;;2.92;1.55;;;;;;;7.31;100.00;99136.50;5049311;28;20049;-76
2023/11/16 02:53:04;;;;;;;4.35;1.40;;;;;;;7.33;100.00;99134.47;5053509;28;20071;-76
2023/11/16 02:55:29;;;;;;;3.50;1.73;;;;;;;7.36;100.00;99129.59;5056370;28;20100;-76
2023/11/16 02:57:55;;;;;;;3.45;1.42;;;;;;;7.32;100.00;99130.94;5058974;28;20040;-76
2023/11/16 03:00:21;;;;;;;3.78;1.08;;;;;;;7.28;100.00;99129.59;5062923;28;20024;-76
2023/11/16 03:02:49;;;;;;;11.20;1.55;;;;;;;7.29;100.00;99128.63;5059755;28;20253;-77
2023/11/16 03:05:15;;;;;;;14.75;1.70;;;;;;;7.29;100.00;99125.09;5044077;28;20025;-76
2023/11/16 03:07:41;;;;;;;6.38;1.27;;;;;;;7.28;100.00;99124.22;5062333;28;20322;-76
2023/11/16 03:10:11;;;;;;;4.68;1.42;;;;;;;7.32;100.00;99119.34;5056776;28;20072;-76
2023/11/16 03:12:37;;;;;;;7.47;2.00;;;;;;;7.28;100.00;99118.84;5060112;28;20021;-77
2023/11/16 03:15:06;;;;;;;4.03;1.30;;;;;;;7.15;100.00;99108.66;5061529;28;20021;-76
2023/11/16 03:17:38;;;;;;;3.58;1.52;;;;;;;7.23;100.00;99118.53;5052514;28;20029;-76
2023/11/16 03:20:04;;;;;;;7.97;1.38;;;;;;;7.25;100.00;99114.66;5063353;28;20040;-76
2023/11/16 03:22:30;;;;;;;8.60;1.67;;;;;;;7.23;100.00;99107.75;5063425;28;20071;-76
2023/11/16 03:24:55;;;;;;;6.47;1.27;;;;;;;7.25;100.00;99094.97;5057174;28;20100;-76
2023/11/16 03:27:21;;;;;;;7.20;1.88;;;;;;;7.25;100.00;99098.50;5064890;28;20012;-76
2023/11/16 03:29:49;;;;;;;3.53;1.50;;;;;;;7.31;100.00;99088.91;5061761;28;20021;-76
2023/11/16 03:32:15;;;;;;;4.00;1.00;;;;;;;7.30;100.00;99086.38;5062635;28;20036;-76
2023/11/16 03:34:41;;;;;;;3.88;1.25;;;;;;;7.21;100.00;99061.38;5055147;28;20028;-76
2023/11/16 03:37:06;;;;;;;9.73;1.85;;;;;;;7.29;100.00;99079.34;5060289;28;20098;-77
2023/11/16 03:39:32;;;;;;;5.32;1.50;;;;;;;7.27;100.00;99079.50;5052571;28;20034;-77
2023/11/16 03:41:58;;;;;;;4.45;1.80;;;;;;;7.30;100.00;99071.06;5044614;28;20052;-77
2023/11/16 03:44:24;;;;;;;4.68;1.77;;;;;;;7.27;100.00;99055.28;5057972;28;20215;-77
2023/11/16 03:46:50;;;;;;;6.75;2.08;;;;;;;7.32;100.00;99062.84;5066204;28;20039;-77
2023/11/16 03:49:15;;;;;;;5.45;1.35;;;;;;;7.34;100.00;99056.25;5065879;28;20029;-77
2023/11/16 03:51:40;;;;;;;7.55;1.63;;;;;;;7.32;100.00;99054.75;5061812;28;20025;-77
2023/11/16 03:54:06;;;;;;;5.50;1.77;;;;;;;7.36;100.00;99059.63;5065951;28;20025;-77
2023/11/16 03:56:31;;;;;;;3.30;1.50;;;;;;;7.35;100.00;99052.53;5071252;28;20029;-77
2023/11/16 03:58:56;;;;;;;3.13;1.42;;;;;;;7.35;100.00;99062.47;5065566;28;20025;-77
2023/11/16 04:01:22;;;;;;;9.55;1.70;;;;;;;7.33;100.00;99070.72;5066251;28;20090;-78
2023/11/16 04:03:47;;;;;;;6.05;1.52;;;;;;;7.41;100.00;99085.97;5060644;28;20013;-76
2023/11/16 04:06:20;;;;;;;5.10;1.25;;;;;;;7.43;100.00;99076.72;5072281;28;20083;-76
2023/11/16 04:08:48;;;;;;;5.25;1.25;;;;;;;7.44;100.00;99078.41;5072563;28;20036;-77
2023/11/16 04:11:14;;;;;;;10.07;1.73;;;;;;;7.35;100.00;99071.38;5065765;28;20037;-77
2023/11/16 04:13:39;;;;;;;11.15;1.98;;;;;;;7.40;100.00;99079.78;5075315;28;20256;-77
2023/11/16 04:16:23;;;;;;;7.07;1.70;;;;;;;7.28;100.00;99067.72;5074970;28;20108;-77
2023/11/16 04:18:49;;;;;;;4.72;2.03;;;;;;;7.38;100.00;99075.56;5067654;28;20304;-76
2023/11/16 04:21:18;;;;;;;9.70;2.80;;;;;;;7.38;100.00;99078.25;5064008;28;20060;-77
2023/11/16 04:23:52;;;;;;;10.73;2.97;;;;;;;7.34;100.00;99068.88;5067738;28;20020;-76
2023/11/16 04:26:20;;;;;;;6.40;4.15;;;;;;;7.26;100.00;99059.00;5082353;28;20020;-77
2023/11/16 04:28:51;;;;;;;5.53;2.83;;;;;;;7.23;100.00;99053.94;5067498;28;20031;-76
2023/11/16 04:31:17;;;;;;;6.68;1.80;;;;;;;7.35;100.00;99047.16;5078697;28;20318;-76
2023/11/16 04:33:42;;;;;;;5.07;1.63;;;;;;;7.34;100.00;99033.91;5062318;28;20028;-77
2023/11/16 04:36:08;;;;;;;7.22;2.20;;;;;;;7.31;100.00;99042.28;5062834;28;20020;-77
2023/11/16 04:38:34;;;;;;;4.97;1.80;;;;;;;7.36;100.00;99045.28;5061873;28;20314;-76
2023/11/16 04:41:02;;;;;;;12.45;2.17;;;;;;;7.32;100.00;99052.91;5063055;28;20024;-76
2023/11/16 04:43:30;;;;;;;5.88;1.75;;;;;;;7.24;100.00;99051.09;5063103;28;20021;-77
2023/11/16 04:45:56;;;;;;;5.78;2.13;;;;;;;7.19;100.00;99048.09;5062555;28;20017;-77
2023/11/16 04:48:21;;;;;;;5.72;1.55;;;;;;;7.21;100.00;99056.00;5062563;28;20023;-77
2023/11/16 04:50:46;;;;;;;6.57;1.40;;;;;;;7.17;100.00;99049.28;5073705;28;20344;-77
2023/11/16 04:53:11;;;;;;;6.30;1.60;;;;;;;7.22;100.00;99052.28;5063162;28;20017;-77
2023/11/16 04:55:37;;;;;;;4.60;1.58;;;;;;;7.21;100.00;99062.22;5067496;28;20195;-78
2023/11/16 04:58:02;;;;;;;3.08;1.50;;;;;;;7.21;100.00;99046.06;5067338;28;20016;-79
2023/11/16 05:00:28;;;;;;;6.45;1.67;;;;;;;7.25;100.00;99047.38;5060064;28;20017;-81
2023/11/16 05:02:53;;;;;;;5.13;2.58;;;;;;;7.17;100.00;99028.56;5063532;28;20043;-81
2023/11/16 05:05:19;;;;;;;5.75;1.33;;;;;;;7.35;100.00;99040.94;5073445;28;20102;-81
2023/11/16 05:07:47;;;;;;;4.15;1.58;;;;;;;7.27;100.00;99022.16;5065856;28;20357;-81
2023/11/16 05:10:15;;;;;;;4.60;1.55;;;;;;;7.24;100.00;99012.56;5062428;28;20021;-78
2023/11/16 05:12:41;;;;;;;6.43;1.77;;;;;;;7.11;100.00;98997.00;5048604;28;20293;-77
2023/11/16 05:15:07;;;;;;;4.72;1.40;;;;;;;7.25;100.00;99025.00;5066292;28;20024;-76
2023/11/16 05:17:44;;;;;;;8.00;2.20;;;;;;;7.28;100.00;99029.19;5068589;28;20283;-80
2023/11/16 05:20:24;;;;;;;4.63;1.73;;;;;;;7.31;100.00;99036.91;5061154;28;20017;-79
2023/11/16 05:22:50;;;;;;;9.90;2.17;;;;;;;7.24;100.00;99039.50;5059213;28;20036;-76
2023/11/16 05:25:15;;;;;;;4.35;2.40;;;;;;;7.36;100.00;99053.38;5062053;28;20017;-78
2023/11/16 05:27:41;;;;;;;3.60;1.55;;;;;;;7.27;100.00;99041.00;5048939;28;20093;-79
2023/11/16 05:30:07;;;;;;;8.60;1.90;;;;;;;7.28;100.00;99037.28;5057737;28;20037;-78
2023/11/16 05:32:33;;;;;;;2.97;1.50;;;;;;;7.23;100.00;99027.88;5064475;28;20070;-77
2023/11/16 05:34:58;;;;;;;5.97;1.67;;;;;;;7.25;100.00;99020.47;5064571;28;20036;-77
2023/11/16 05:37:24;;;;;;;4.97;1.60;;;;;;;7.15;100.00;99001.03;5079303;28;20323;-80
2023/11/16 05:39:51;;;;;;;7.30;1.60;;;;;;;7.21;100.00;99010.25;5065121;28;20044;-82
2023/11/16 05:42:17;;;;;;;6.32;1.60;;;;;;;7.19;100.00;98999.66;5068491;28;20018;-79
2023/11/16 05:44:44;;;;;;;6.18;2.05;;;;;;;7.13;100.00;98984.22;5065724;28;20093;-79
2023/11/16 05:47:11;;;;;;;9.55;2.50;;;;;;;7.08;100.00;98997.38;5067178;28;20021;-79
2023/11/16 05:49:36;;;;;;;8.23;2.42;;;;;;;7.05;100.00;98988.78;5065113;28;20348;-78
2023/11/16 05:52:02;;;;;;;8.07;1.95;;;;;;;7.06;100.00;98987.78;5060224;28;20033;-80
2023/11/16 05:54:28;;;;;;;5.97;1.83;;;;;;;7.19;100.00;99005.03;5066404;28;20029;-78
2023/11/16 05:56:54;;;;;;;7.63;1.60;;;;;;;7.16;100.00;98989.25;5057953;28;20027;-75
2023/11/16 05:59:21;;;;;;;4.97;1.95;;;;;;;7.15;100.00;98992.09;5064096;28;20076;-78
2023/11/16 06:01:46;;;;;;;2.88;1.33;;;;;;;7.22;100.00;98985.00;5065633;28;20032;-76
2023/11/16 06:04:12;;;;;;;3.78;1.27;;;;;;;7.31;100.00;98991.16;5051894;28;20029;-77
2023/11/16 06:06:37;;;;;;;7.10;1.52;;;;;;;7.23;100.00;98959.75;5057257;28;20032;-77
2023/11/16 06:09:04;;;;;;;5.05;1.33;;;;;;;7.35;100.00;98970.97;5055811;28;20071;-75
2023/11/16 06:15:06;;;;;;;5.03;1.40;;;;;;;7.34;100.00;98956.69;5080750;28;20088;-83
2023/11/16 06:17:31;;;;;;;6.85;1.67;;;;;;;7.34;100.00;98958.53;5062334;28;20029;-75
2023/11/16 06:19:57;;;;;;;2.55;1.20;;;;;;;7.30;100.00;98946.44;5053540;28;20009;-75
2023/11/16 06:22:22;;;;;;;2.78;1.50;;;;;;;7.39;100.00;98958.84;5062581;28;20032;-75
2023/11/16 06:24:47;;;;;;;5.25;1.40;;;;;;;7.42;100.00;98947.72;5060964;28;20338;-75
2023/11/16 06:27:12;;;;;;;4.38;1.15;;;;;;;7.38;100.00;98938.31;5049923;28;20028;-75
2023/11/16 06:29:38;;;;;;;4.75;1.40;;;;;;;7.47;100.00;98934.53;5045191;28;20032;-74
2023/11/16 06:32:05;;;;;;;6.07;2.00;;;;;;;7.46;100.00;98949.00;5060154;28;20033;-74
2023/11/16 06:34:36;;;;;;;6.05;1.95;;;;;;;7.49;100.00;98950.50;5067773;28;20033;-74
2023/11/16 06:37:03;;;;;;;3.83;1.73;;;;;;;7.48;100.00;98960.44;5072642;28;20017;-75
2023/11/16 06:39:29;;;;;;;9.77;2.28;;;;;;;7.36;100.00;98946.56;5074388;28;20299;-74
2023/11/16 06:41:55;;;;;;;7.32;2.40;;;;;;;7.32;100.00;98955.19;5072815;28;20031;-74
2023/11/16 06:44:21;;;;;;;5.55;2.72;;;;;;;7.25;100.00;98945.09;5070779;28;20020;-74
2023/11/16 06:46:46;;;;;;;8.60;2.60;;;;;;;7.27;100.00;98954.88;5071386;28;20036;-75
2023/11/16 06:49:11;;;;;;;7.05;2.63;;;;;;;7.28;100.00;98949.28;5072462;28;20037;-79
2023/11/16 06:51:37;;;;;;;5.85;2.17;;;;;;;7.30;100.00;98941.06;5073341;28;20072;-78
2023/11/16 06:54:05;;;;;;;5.43;2.28;;;;;;;7.27;100.00;98925.28;5075478;28;20093;-79
2023/11/16 06:56:32;;;;;;;12.25;5.05;;;;;;;7.40;100.00;98953.25;5068903;28;20017;-79
2023/11/16 06:59:00;;;;;;;17.77;4.97;;;;;;;7.39;100.00;98948.06;5076560;28;20021;-79
2023/11/16 07:01:32;;;;;;;4.35;2.50;;;;;;;7.31;100.00;98940.03;5074857;28;20029;-78
2023/11/16 07:04:16;;;;;;;7.53;2.10;;;;;;;7.29;100.00;98944.78;5045198;28;20045;-79
2023/11/16 07:06:42;;;;;;;3.65;2.03;;;;;;;7.34;100.00;98937.84;5070952;28;20049;-79
2023/11/16 07:09:08;;;;;;;5.72;2.35;;;;;;;7.34;100.00;98937.84;5058665;28;20022;-77
2023/11/16 07:11:33;;;;;;;9.70;2.10;;;;;;;7.28;100.00;98938.53;5064032;28;20329;-78
2023/11/16 07:14:12;;;;;;;6.70;2.83;;;;;;;7.39;100.00;98940.81;5073289;28;20045;-79
2023/11/16 07:16:37;;;;;;;7.35;2.35;;;;;;;7.40;100.00;98930.88;5072739;28;20049;-76
2023/11/16 07:19:02;;;;;;;9.77;3.42;;;;;;;7.55;100.00;98921.03;5073947;28;20036;-76
2023/11/16 07:21:28;;;;;;;11.00;3.25;;;;;;;7.64;100.00;98917.22;5067906;28;20029;-79
2023/11/16 07:23:53;;;;;;;15.80;4.68;;;;;;;7.87;100.00;98927.97;5062414;28;20028;-77
2023/11/16 07:26:18;;;;;;;11.70;4.88;;;;;;;7.93;100.00;98912.09;5057238;28;20092;-77
2023/11/16 07:28:45;;;;;;;9.32;3.35;;;;;;;7.92;100.00;98895.09;5054222;28;20036;-78
2023/11/16 07:31:14;;;;;;;11.35;2.72;;;;;;;7.98;100.00;98894.34;5063054;28;20031;-75
2023/11/16 07:33:39;;;;;;;6.72;3.33;;;;;;;7.93;100.00;98896.75;5053653;28;20025;-75
2023/11/16 07:36:05;;;;;;;13.63;5.22;;;;;;;7.96;100.00;98895.53;5051330;28;20100;-77
2023/11/16 07:38:32;;;;;;;25.05;11.15;;;;;;;8.01;100.00;98899.34;5062342;28;20040;-76
2023/11/16 07:40:57;;;;;;;24.98;11.43;;;;;;;8.17;100.00;98909.13;5066532;28;20024;-77
2023/11/16 07:43:23;;;;;;;24.00;10.70;;;;;;;8.33;100.00;98911.66;5063322;28;20055;-79
2023/11/16 07:45:49;;;;;;;17.52;8.48;;;;;;;8.33;100.00;98894.63;5062159;28;20031;-76
2023/11/16 07:48:15;;;;;;;11.55;5.53;;;;;;;8.46;100.00;98888.59;5063107;28;20033;-75
2023/11/16 07:50:42;;;;;;;7.97;3.65;;;;;;;8.44;100.00;98874.50;5062258;28;20075;-76
2023/11/16 07:53:10;;;;;;;13.45;4.25;;;;;;;8.45;100.00;98877.00;5063043;28;20066;-79
2023/11/16 07:55:37;;;;;;;8.15;2.80;;;;;;;8.36;100.00;98861.91;5064560;28;20032;-79
2023/11/16 07:58:05;;;;;;;7.35;3.45;;;;;;;8.16;100.00;98860.81;5059683;28;20043;-78
2023/11/16 08:01:40;;;;;;;7.75;3.70;;;;;;;8.15;100.00;98869.91;5064650;28;20041;-78
2023/11/16 08:04:05;;;;;;;11.27;4.05;;;;;;;8.12;100.00;98850.41;5059385;28;20029;-76
2023/11/16 08:06:35;;;;;;;6.07;3.22;;;;;;;8.15;100.00;98848.34;5060588;28;20032;-77
2023/11/16 08:09:00;;;;;;;5.72;2.50;;;;;;;8.24;100.00;98856.16;5063624;28;20040;-76
2023/11/16 08:11:26;;;;;;;10.00;3.20;;;;;;;8.29;100.00;98856.44;5061279;28;20056;-77
2023/11/16 08:13:52;;;;;;;6.78;3.20;;;;;;;8.38;100.00;98850.94;5055581;28;20029;-79
2023/11/16 08:16:21;;;;;;;9.30;3.88;;;;;;;8.56;100.00;98852.22;5049731;28;20357;-74
2023/11/16 08:18:47;;;;;;;8.98;4.43;;;;;;;8.70;100.00;98828.13;5056288;28;20123;-74
2023/11/16 08:21:19;;;;;;;5.75;3.17;;;;;;;8.83;100.00;98833.69;5063382;28;20029;-80
2023/11/16 08:23:45;;;;;;;8.57;3.25;;;;;;;8.92;100.00;98823.59;5053895;28;20024;-76
2023/11/16 08:26:12;;;;;;;7.65;3.50;;;;;;;9.10;100.00;98817.75;5062192;28;20084;-76
2023/11/16 08:28:40;;;;;;;3.92;2.30;;;;;;;9.18;100.00;98806.81;5060715;28;20092;-74
2023/11/16 08:31:06;;;;;;;6.32;2.53;;;;;;;9.23;100.00;98796.25;5047447;28;20211;-76
2023/11/16 08:33:35;;;;;;;5.68;2.65;;;;;;;9.32;100.00;98805.88;5065842;28;20028;-76
2023/11/16 08:36:01;;;;;;;8.30;2.72;;;;;;;9.17;100.00;98783.56;5058077;28;20042;-74
2023/11/16 08:38:27;;;;;;;7.13;2.80;;;;;;;9.24;100.00;98787.13;5061750;28;20021;-78
2023/11/16 08:40:58;;;;;;;12.13;2.95;;;;;;;9.39;100.00;98787.88;5068052;28;20278;-79
2023/11/16 08:43:27;;;;;;;7.07;2.50;;;;;;;9.58;100.00;98790.91;5065366;28;20029;-79
2023/11/16 08:45:53;;;;;;;9.77;2.90;;;;;;;9.71;100.00;98785.59;5076746;28;20091;-73
2023/11/16 08:48:30;;;;;;;8.13;2.80;;;;;;;9.74;100.00;98765.44;5059166;28;20303;-76
2023/11/16 08:51:00;;;;;;;6.15;2.80;;;;;;;10.01;100.00;98769.97;5053474;28;20029;-75
2023/11/16 08:53:30;;;;;;;6.85;2.88;;;;;;;10.15;100.00;98761.94;5056815;28;20052;-73
2023/11/16 08:56:01;;;;;;;6.50;2.20;;;;;;;10.13;100.00;98745.06;5066744;28;20039;-73
2023/11/16 08:58:29;;;;;;;6.50;2.13;;;;;;;10.30;100.00;98744.53;5066269;28;20044;-74
2023/11/16 09:00:55;;;;;;;6.32;2.38;;;;;;;10.64;100.00;98729.22;5063686;28;20021;-76
2023/11/16 09:03:21;;;;;;;3.13;1.80;;;;;;;10.86;100.00;98729.88;5066390;28;20025;-74
2023/11/16 09:05:46;;;;;;;5.18;1.70;;;;;;;11.33;100.00;98721.75;5062681;28;20174;-75
2023/11/16 09:08:13;;;;;;;6.32;1.83;;;;;;;11.60;100.00;98711.69;5065333;28;20025;-77
2023/11/16 09:10:41;;;;;;;6.72;2.00;;;;;;;11.41;100.00;98703.41;5063240;28;20020;-78
2023/11/16 09:13:08;;;;;;;6.97;2.13;;;;;;;11.33;100.00;98719.03;5066429;28;20043;-78
2023/11/16 09:15:33;;;;;;;9.05;3.75;;;;;;;11.18;100.00;98701.13;5060695;28;20029;-77
2023/11/16 09:17:59;;;;;;;14.15;3.25;;;;;;;11.11;100.00;98700.31;5066914;28;20032;-78
2023/11/16 09:20:25;;;;;;;12.15;4.05;;;;;;;11.01;100.00;98696.38;5063725;28;20052;-77
2023/11/16 09:22:53;;;;;;;8.18;2.85;;;;;;;10.82;100.00;98706.13;5063524;28;20059;-76
2023/11/16 09:25:19;;;;;;;7.10;2.58;;;;;;;10.61;100.00;98705.31;5064189;28;20277;-76
2023/11/16 09:27:52;;;;;;;6.32;2.53;;;;;;;10.69;100.00;98702.41;5062730;28;20326;-75
2023/11/16 09:30:21;;;;;;;7.03;2.00;;;;;;;10.60;100.00;98698.22;5050312;28;20021;-77
2023/11/16 09:32:47;;;;;;;11.77;2.00;;;;;;;10.51;100.00;98697.56;5067640;28;20052;-78
2023/11/16 09:35:15;;;;;;;6.13;1.70;;;;;;;10.48;100.00;98689.06;5065516;28;20218;-80
2023/11/16 09:37:44;;;;;;;3.85;1.60;;;;;;;10.49;100.00;98677.19;5061768;28;20027;-80
2023/11/16 09:40:12;;;;;;;6.53;1.58;;;;;;;10.40;100.00;98681.09;5053303;28;20063;-78
2023/11/16 09:42:39;;;;;;;7.72;1.85;;;;;;;10.35;100.00;98672.78;5059364;28;20029;-76
2023/11/16 09:45:07;;;;;;;6.47;1.90;;;;;;;10.36;100.00;98660.94;5067096;28;20326;-78
2023/11/16 09:47:43;;;;;;;6.25;1.48;;;;;;;10.44;100.00;98661.56;5070520;28;20260;-76
2023/11/16 09:50:09;;;;;;;11.02;2.00;;;;;;;10.40;100.00;98648.66;5058201;28;20024;-78
2023/11/16 09:52:38;;;;;;;5.60;1.73;;;;;;;10.50;100.00;98644.50;5056452;28;20039;-80
2023/11/16 09:55:06;;;;;;;4.15;1.40;;;;;;;10.45;100.00;98647.03;5064502;28;20023;-78
2023/11/16 09:57:33;;;;;;;7.72;2.28;;;;;;;10.53;100.00;98629.72;5065822;28;20028;-77
2023/11/16 10:00:02;;;;;;;7.53;1.92;;;;;;;10.74;100.00;98623.28;5055557;28;20210;-78
2023/11/16 10:02:37;;;;;;;9.20;1.80;;;;;;;10.66;100.00;98616.22;5046848;28;20025;-80
2023/11/16 10:05:18;;;;;;;5.13;1.98;;;;;;;10.62;100.00;98619.56;5065690;28;20029;-79
2023/11/16 10:07:46;;;;;;;9.13;2.47;;;;;;;10.48;100.00;98599.78;5063799;28;20025;-77
2023/11/16 10:10:14;;;;;;;7.07;2.35;;;;;;;10.58;100.00;98600.19;5065149;28;20044;-81
2023/11/16 10:12:48;;;;;;;10.70;2.70;;;;;;;10.53;100.00;98603.53;5064062;28;20082;-77
2023/11/16 10:15:17;;;;;;;4.85;1.38;;;;;;;10.17;100.00;98579.56;5063610;28;20024;-72
2023/11/16 10:17:43;;;;;;;7.45;1.50;;;;;;;10.35;100.00;98583.53;5053347;28;20419;-74
2023/11/16 10:20:10;;;;;;;6.20;1.33;;;;;;;10.20;100.00;98581.84;5064047;28;20071;-79
2023/11/16 10:22:36;;;;;;;5.20;1.27;;;;;;;10.10;100.00;98565.19;5066182;28;20021;-76
2023/11/16 10:25:06;;;;;;;6.32;1.70;;;;;;;10.05;100.00;98563.09;5065045;28;20033;-76
2023/11/16 10:27:32;;;;;;;;;;;;;;;10.12;100.00;98554.19;5074478;28;20024;-76
2023/11/16 10:30:00;;;;;;;6.95;1.40;;;;;;;10.10;100.00;98548.97;5068718;28;19944;-76
2023/11/16 10:32:26;;;;;;;5.95;1.58;;;;;;;10.18;100.00;98534.44;5073084;28;20052;-76
2023/11/16 10:34:52;;;;;;;8.45;1.58;;;;;;;10.22;100.00;98523.00;5073894;28;20091;-74
2023/11/16 10:37:18;;;;;;;4.93;1.83;;;;;;;10.29;100.00;98526.53;5057833;28;20370;-75
2023/11/16 10:39:44;;;;;;;7.05;1.85;;;;;;;10.22;100.00;98514.88;5063699;28;20036;-73
2023/11/16 10:42:09;;;;;;;6.35;2.28;;;;;;;10.07;100.00;98498.88;5066656;28;20037;-75
2023/11/16 10:44:37;;;;;;;7.50;2.05;;;;;;;9.93;100.00;98502.63;5047285;28;20137;-76
2023/11/16 10:47:03;;;;;;;3.83;1.83;;;;;;;9.88;100.00;98489.72;5053432;28;22219;-75
2023/11/16 10:49:29;;;;;;;5.07;1.67;;;;;;;9.97;100.00;98476.00;5053587;28;20272;-76
2023/11/16 10:51:57;;;;;;;5.97;1.85;;;;;;;9.84;100.00;98464.13;5079292;28;20092;-76
2023/11/16 10:54:27;;;;;;;5.50;1.80;;;;;;;9.94;100.00;98463.72;5064149;28;20102;-75
2023/11/16 10:56:53;;;;;;;6.85;1.85;;;;;;;9.72;100.00;98457.69;5056428;28;20101;-74
2023/11/16 10:59:21;;;;;;;3.20;1.52;;;;;;;9.67;100.00;98446.69;5055627;28;20230;-74
2023/11/16 11:01:47;;;;;;;7.68;1.58;;;;;;;9.61;100.00;98451.00;5051855;28;20075;-74
2023/11/16 11:04:13;;;;;;;5.43;1.67;;;;;;;9.51;100.00;98447.91;5058305;28;20048;-74
2023/11/16 11:06:42;;;;;;;5.18;1.80;;;;;;;9.46;100.00;98431.47;5058462;28;20029;-74
2023/11/16 11:09:09;;;;;;;9.93;2.03;;;;;;;9.54;100.00;98436.69;5050272;28;20396;-74
2023/11/16 11:11:38;;;;;;;4.45;1.92;;;;;;;9.57;100.00;98413.84;5062590;28;20314;-74
2023/11/16 11:14:06;;;;;;;6.38;1.83;;;;;;;9.50;100.00;98403.03;5063208;28;20020;-74
2023/11/16 11:16:31;;;;;;;4.93;2.10;;;;;;;9.53;100.00;98399.06;5057850;28;20032;-74
2023/11/16 11:18:57;;;;;;;4.63;1.75;;;;;;;9.59;100.00;98398.25;5052476;28;20017;-74
2023/11/16 11:21:23;;;;;;;10.10;2.03;;;;;;;9.54;100.00;98385.38;5059287;28;20024;-74
2023/11/16 11:24:04;;;;;;;5.35;1.85;;;;;;;9.50;100.00;98380.59;5062106;28;20055;-74
2023/11/16 11:26:45;;;;;;;5.97;1.63;;;;;;;9.36;100.00;98366.25;5058145;28;20376;-74
2023/11/16 11:29:12;;;;;;;5.90;1.90;;;;;;;9.29;100.00;98360.84;5054117;28;20080;-74
2023/11/16 11:31:57;;;;;;;6.05;1.85;;;;;;;9.28;100.00;98356.47;5058849;28;20039;-74
2023/11/16 11:34:29;;;;;;;4.10;1.38;;;;;;;9.20;100.00;98335.91;5063427;28;20100;-76
2023/11/16 11:36:55;;;;;;;8.07;1.40;;;;;;;9.10;100.00;98305.81;5050800;28;20094;-77